sensor_id;sensor_type;location;lat;lon;timestamp;temperature;humidity
47576;DHT22;33304;52.456;13.328;2023-02-04T00:02:24;3.90;67.70
47576;DHT22;33304;52.456;13.328;2023-02-04T00:04:51;3.90;67.40
47576;DHT22;33304;52.456;13.328;2023-02-04T00:07:19;3.90;67.10
47576;DHT22;33304;52.456;13.328;2023-02-04T00:09:46;3.80;66.10
47576;DHT22;33304;52.456;13.328;2023-02-04T00:12:15;3.80;65.40
47576;DHT22;33304;52.456;13.328;2023-02-04T00:14:42;3.80;65.80
47576;DHT22;33304;52.456;13.328;2023-02-04T00:17:09;3.80;65.50
47576;DHT22;33304;52.456;13.328;2023-02-04T00:19:38;3.80;65.80
47576;DHT22;33304;52.456;13.328;2023-02-04T00:22:05;3.90;66.20
47576;DHT22;33304;52.456;13.328;2023-02-04T00:24:34;3.90;64.20
47576;DHT22;33304;52.456;13.328;2023-02-04T00:27:02;3.90;63.00
47576;DHT22;33304;52.456;13.328;2023-02-04T00:29:29;3.90;61.70
47576;DHT22;33304;52.456;13.328;2023-02-04T00:31:56;3.90;61.00
47576;DHT22;33304;52.456;13.328;2023-02-04T00:34:23;3.90;61.10
47576;DHT22;33304;52.456;13.328;2023-02-04T00:36:51;3.80;60.90
47576;DHT22;33304;52.456;13.328;2023-02-04T00:39:18;3.90;61.10
47576;DHT22;33304;52.456;13.328;2023-02-04T00:41:46;3.90;61.00
47576;DHT22;33304;52.456;13.328;2023-02-04T00:44:13;3.80;61.00
47576;DHT22;33304;52.456;13.328;2023-02-04T00:46:41;3.80;63.50
47576;DHT22;33304;52.456;13.328;2023-02-04T00:49:08;3.80;63.90
47576;DHT22;33304;52.456;13.328;2023-02-04T00:51:37;3.70;64.50
47576;DHT22;33304;52.456;13.328;2023-02-04T00:54:05;3.70;65.20
47576;DHT22;33304;52.456;13.328;2023-02-04T00:56:33;3.60;65.90
47576;DHT22;33304;52.456;13.328;2023-02-04T00:59:03;3.60;66.70
47576;DHT22;33304;52.456;13.328;2023-02-04T01:01:30;3.60;65.60
47576;DHT22;33304;52.456;13.328;2023-02-04T01:03:57;3.50;64.00
47576;DHT22;33304;52.456;13.328;2023-02-04T01:06:24;3.40;63.60
47576;DHT22;33304;52.456;13.328;2023-02-04T01:08:51;3.40;62.90
47576;DHT22;33304;52.456;13.328;2023-02-04T01:11:18;3.40;63.20
47576;DHT22;33304;52.456;13.328;2023-02-04T01:13:46;3.30;62.70
47576;DHT22;33304;52.456;13.328;2023-02-04T01:16:14;3.30;61.50
47576;DHT22;33304;52.456;13.328;2023-02-04T01:18:43;3.20;61.60
47576;DHT22;33304;52.456;13.328;2023-02-04T01:21:10;3.20;62.00
47576;DHT22;33304;52.456;13.328;2023-02-04T01:23:38;3.20;61.80
47576;DHT22;33304;52.456;13.328;2023-02-04T01:26:07;3.20;61.10
47576;DHT22;33304;52.456;13.328;2023-02-04T01:28:34;3.10;60.40
47576;DHT22;33304;52.456;13.328;2023-02-04T01:31:01;3.20;59.60
47576;DHT22;33304;52.456;13.328;2023-02-04T01:33:29;3.10;59.70
47576;DHT22;33304;52.456;13.328;2023-02-04T01:35:56;3.10;59.70
47576;DHT22;33304;52.456;13.328;2023-02-04T01:38:23;3.10;60.00
47576;DHT22;33304;52.456;13.328;2023-02-04T01:40:51;3.10;58.80
47576;DHT22;33304;52.456;13.328;2023-02-04T01:43:20;3.00;58.30
47576;DHT22;33304;52.456;13.328;2023-02-04T01:45:48;3.00;58.70
47576;DHT22;33304;52.456;13.328;2023-02-04T01:48:17;2.90;59.20
47576;DHT22;33304;52.456;13.328;2023-02-04T01:50:47;3.00;59.80
47576;DHT22;33304;52.456;13.328;2023-02-04T01:53:17;3.00;60.20
47576;DHT22;33304;52.456;13.328;2023-02-04T01:55:45;3.00;59.50
47576;DHT22;33304;52.456;13.328;2023-02-04T01:58:13;3.00;59.00
47576;DHT22;33304;52.456;13.328;2023-02-04T02:00:41;3.00;57.90
47576;DHT22;33304;52.456;13.328;2023-02-04T02:03:08;2.90;57.80
47576;DHT22;33304;52.456;13.328;2023-02-04T02:05:40;2.90;57.60
47576;DHT22;33304;52.456;13.328;2023-02-04T02:08:12;2.90;57.80
47576;DHT22;33304;52.456;13.328;2023-02-04T02:10:41;2.80;57.80
47576;DHT22;33304;52.456;13.328;2023-02-04T02:13:12;2.90;57.50
47576;DHT22;33304;52.456;13.328;2023-02-04T02:15:40;2.80;57.20
47576;DHT22;33304;52.456;13.328;2023-02-04T02:18:08;2.90;57.10
47576;DHT22;33304;52.456;13.328;2023-02-04T02:20:36;2.90;56.80
47576;DHT22;33304;52.456;13.328;2023-02-04T02:23:09;2.90;56.70
47576;DHT22;33304;52.456;13.328;2023-02-04T02:25:40;2.80;57.10
47576;DHT22;33304;52.456;13.328;2023-02-04T02:28:12;2.90;57.50
47576;DHT22;33304;52.456;13.328;2023-02-04T02:30:40;2.90;57.10
47576;DHT22;33304;52.456;13.328;2023-02-04T02:33:10;2.90;56.80
47576;DHT22;33304;52.456;13.328;2023-02-04T02:35:39;2.90;55.90
47576;DHT22;33304;52.456;13.328;2023-02-04T02:38:08;2.90;55.40
47576;DHT22;33304;52.456;13.328;2023-02-04T02:40:36;2.90;55.40
47576;DHT22;33304;52.456;13.328;2023-02-04T02:43:05;2.90;55.80
47576;DHT22;33304;52.456;13.328;2023-02-04T02:45:33;2.80;54.90
47576;DHT22;33304;52.456;13.328;2023-02-04T02:48:01;2.90;54.90
47576;DHT22;33304;52.456;13.328;2023-02-04T02:50:30;2.90;55.00
47576;DHT22;33304;52.456;13.328;2023-02-04T02:52:59;2.80;55.90
47576;DHT22;33304;52.456;13.328;2023-02-04T02:55:27;2.90;55.50
47576;DHT22;33304;52.456;13.328;2023-02-04T02:57:56;2.90;55.60
47576;DHT22;33304;52.456;13.328;2023-02-04T03:00:27;3.00;55.10
47576;DHT22;33304;52.456;13.328;2023-02-04T03:03:02;2.90;55.40
47576;DHT22;33304;52.456;13.328;2023-02-04T03:05:34;2.80;55.60
47576;DHT22;33304;52.456;13.328;2023-02-04T03:08:03;2.80;55.60
47576;DHT22;33304;52.456;13.328;2023-02-04T03:10:31;2.80;54.90
47576;DHT22;33304;52.456;13.328;2023-02-04T03:12:59;2.80;55.10
47576;DHT22;33304;52.456;13.328;2023-02-04T03:15:27;2.80;55.50
47576;DHT22;33304;52.456;13.328;2023-02-04T03:17:55;2.70;55.50
47576;DHT22;33304;52.456;13.328;2023-02-04T03:20:23;2.70;55.90
47576;DHT22;33304;52.456;13.328;2023-02-04T03:22:51;2.70;55.70
47576;DHT22;33304;52.456;13.328;2023-02-04T03:25:19;2.70;55.80
47576;DHT22;33304;52.456;13.328;2023-02-04T03:27:50;2.60;55.80
47576;DHT22;33304;52.456;13.328;2023-02-04T03:30:19;2.50;56.10
47576;DHT22;33304;52.456;13.328;2023-02-04T03:32:48;2.50;55.90
47576;DHT22;33304;52.456;13.328;2023-02-04T03:35:16;2.60;56.00
47576;DHT22;33304;52.456;13.328;2023-02-04T03:37:43;2.50;55.90
47576;DHT22;33304;52.456;13.328;2023-02-04T03:40:11;2.50;56.10
47576;DHT22;33304;52.456;13.328;2023-02-04T03:42:38;2.50;56.40
47576;DHT22;33304;52.456;13.328;2023-02-04T03:45:06;2.40;57.40
47576;DHT22;33304;52.456;13.328;2023-02-04T03:47:33;2.40;56.80
47576;DHT22;33304;52.456;13.328;2023-02-04T03:50:01;2.40;57.50
47576;DHT22;33304;52.456;13.328;2023-02-04T03:52:28;2.40;56.90
47576;DHT22;33304;52.456;13.328;2023-02-04T03:54:55;2.50;56.60
47576;DHT22;33304;52.456;13.328;2023-02-04T03:57:22;2.50;56.60
47576;DHT22;33304;52.456;13.328;2023-02-04T03:59:49;2.50;56.40
47576;DHT22;33304;52.456;13.328;2023-02-04T04:02:17;2.40;56.50
47576;DHT22;33304;52.456;13.328;2023-02-04T04:04:44;2.40;57.00
47576;DHT22;33304;52.456;13.328;2023-02-04T04:07:12;2.30;57.10
47576;DHT22;33304;52.456;13.328;2023-02-04T04:09:39;2.30;57.10
47576;DHT22;33304;52.456;13.328;2023-02-04T04:12:06;2.20;58.40
47576;DHT22;33304;52.456;13.328;2023-02-04T04:14:33;2.30;58.10
47576;DHT22;33304;52.456;13.328;2023-02-04T04:17:00;2.40;58.40
47576;DHT22;33304;52.456;13.328;2023-02-04T04:19:27;2.30;58.20
47576;DHT22;33304;52.456;13.328;2023-02-04T04:21:56;2.30;58.60
47576;DHT22;33304;52.456;13.328;2023-02-04T04:24:25;2.30;58.10
47576;DHT22;33304;52.456;13.328;2023-02-04T04:26:52;2.40;58.10
47576;DHT22;33304;52.456;13.328;2023-02-04T04:29:19;2.50;58.40
47576;DHT22;33304;52.456;13.328;2023-02-04T04:31:46;2.40;58.50
47576;DHT22;33304;52.456;13.328;2023-02-04T04:34:13;2.40;58.80
47576;DHT22;33304;52.456;13.328;2023-02-04T04:36:40;2.40;58.10
47576;DHT22;33304;52.456;13.328;2023-02-04T04:39:07;2.50;57.90
47576;DHT22;33304;52.456;13.328;2023-02-04T04:41:35;2.50;57.40
47576;DHT22;33304;52.456;13.328;2023-02-04T04:44:02;2.50;58.20
47576;DHT22;33304;52.456;13.328;2023-02-04T04:46:29;2.40;58.20
47576;DHT22;33304;52.456;13.328;2023-02-04T04:48:56;2.40;58.30
47576;DHT22;33304;52.456;13.328;2023-02-04T04:51:23;2.50;58.60
47576;DHT22;33304;52.456;13.328;2023-02-04T04:53:50;2.50;58.50
47576;DHT22;33304;52.456;13.328;2023-02-04T04:56:18;2.50;58.50
47576;DHT22;33304;52.456;13.328;2023-02-04T04:58:46;2.50;57.80
47576;DHT22;33304;52.456;13.328;2023-02-04T05:01:13;2.50;57.90
47576;DHT22;33304;52.456;13.328;2023-02-04T05:03:40;2.50;58.00
47576;DHT22;33304;52.456;13.328;2023-02-04T05:06:07;2.50;57.80
47576;DHT22;33304;52.456;13.328;2023-02-04T05:08:35;2.50;57.50
47576;DHT22;33304;52.456;13.328;2023-02-04T05:11:02;2.40;57.80
47576;DHT22;33304;52.456;13.328;2023-02-04T05:13:30;2.30;57.90
47576;DHT22;33304;52.456;13.328;2023-02-04T05:15:58;2.30;58.20
47576;DHT22;33304;52.456;13.328;2023-02-04T05:18:25;2.30;58.60
47576;DHT22;33304;52.456;13.328;2023-02-04T05:20:52;2.30;59.60
47576;DHT22;33304;52.456;13.328;2023-02-04T05:23:19;2.20;59.60
47576;DHT22;33304;52.456;13.328;2023-02-04T05:25:46;2.20;59.60
47576;DHT22;33304;52.456;13.328;2023-02-04T05:28:13;2.10;60.10
47576;DHT22;33304;52.456;13.328;2023-02-04T05:30:40;2.00;61.70
47576;DHT22;33304;52.456;13.328;2023-02-04T05:33:08;2.10;62.00
47576;DHT22;33304;52.456;13.328;2023-02-04T05:35:35;2.00;62.60
47576;DHT22;33304;52.456;13.328;2023-02-04T05:38:02;2.00;63.00
47576;DHT22;33304;52.456;13.328;2023-02-04T05:40:30;2.00;63.10
47576;DHT22;33304;52.456;13.328;2023-02-04T05:42:57;2.10;63.10
47576;DHT22;33304;52.456;13.328;2023-02-04T05:45:24;2.00;62.70
47576;DHT22;33304;52.456;13.328;2023-02-04T05:47:51;2.00;62.80
47576;DHT22;33304;52.456;13.328;2023-02-04T05:50:19;2.00;63.20
47576;DHT22;33304;52.456;13.328;2023-02-04T05:52:46;1.90;63.70
47576;DHT22;33304;52.456;13.328;2023-02-04T05:55:13;1.80;64.20
47576;DHT22;33304;52.456;13.328;2023-02-04T05:57:41;1.90;64.70
47576;DHT22;33304;52.456;13.328;2023-02-04T06:00:09;1.90;65.00
47576;DHT22;33304;52.456;13.328;2023-02-04T06:02:40;1.90;65.50
47576;DHT22;33304;52.456;13.328;2023-02-04T06:05:07;1.90;64.90
47576;DHT22;33304;52.456;13.328;2023-02-04T06:07:36;1.90;65.10
47576;DHT22;33304;52.456;13.328;2023-02-04T06:10:03;1.90;65.40
47576;DHT22;33304;52.456;13.328;2023-02-04T06:12:30;1.80;65.50
47576;DHT22;33304;52.456;13.328;2023-02-04T06:14:57;1.80;66.10
47576;DHT22;33304;52.456;13.328;2023-02-04T06:17:24;1.90;66.50
47576;DHT22;33304;52.456;13.328;2023-02-04T06:19:51;1.90;65.90
47576;DHT22;33304;52.456;13.328;2023-02-04T06:22:18;1.90;66.00
47576;DHT22;33304;52.456;13.328;2023-02-04T06:24:47;1.80;65.90
47576;DHT22;33304;52.456;13.328;2023-02-04T06:27:14;1.80;66.60
47576;DHT22;33304;52.456;13.328;2023-02-04T06:29:48;1.80;67.00
47576;DHT22;33304;52.456;13.328;2023-02-04T06:32:15;1.80;67.20
47576;DHT22;33304;52.456;13.328;2023-02-04T06:34:44;1.80;67.40
47576;DHT22;33304;52.456;13.328;2023-02-04T06:37:11;1.80;67.30
47576;DHT22;33304;52.456;13.328;2023-02-04T06:39:40;1.80;67.70
47576;DHT22;33304;52.456;13.328;2023-02-04T06:42:09;1.80;67.50
47576;DHT22;33304;52.456;13.328;2023-02-04T06:44:36;1.80;67.90
47576;DHT22;33304;52.456;13.328;2023-02-04T06:47:03;1.70;67.60
47576;DHT22;33304;52.456;13.328;2023-02-04T06:49:30;1.70;68.50
47576;DHT22;33304;52.456;13.328;2023-02-04T06:51:57;1.70;69.80
47576;DHT22;33304;52.456;13.328;2023-02-04T06:54:24;1.70;69.10
47576;DHT22;33304;52.456;13.328;2023-02-04T06:56:52;1.70;69.80
47576;DHT22;33304;52.456;13.328;2023-02-04T06:59:20;1.70;69.60
47576;DHT22;33304;52.456;13.328;2023-02-04T07:01:48;1.70;69.80
47576;DHT22;33304;52.456;13.328;2023-02-04T07:04:15;1.70;69.80
47576;DHT22;33304;52.456;13.328;2023-02-04T07:06:42;1.60;69.70
47576;DHT22;33304;52.456;13.328;2023-02-04T07:09:09;1.70;69.80
47576;DHT22;33304;52.456;13.328;2023-02-04T07:11:36;1.60;69.70
47576;DHT22;33304;52.456;13.328;2023-02-04T07:14:03;1.70;70.80
47576;DHT22;33304;52.456;13.328;2023-02-04T07:16:31;1.70;71.20
47576;DHT22;33304;52.456;13.328;2023-02-04T07:18:58;1.80;71.60
47576;DHT22;33304;52.456;13.328;2023-02-04T07:21:26;1.80;69.90
47576;DHT22;33304;52.456;13.328;2023-02-04T07:23:53;1.80;70.00
47576;DHT22;33304;52.456;13.328;2023-02-04T07:26:20;1.70;69.90
47576;DHT22;33304;52.456;13.328;2023-02-04T07:28:47;1.70;70.60
47576;DHT22;33304;52.456;13.328;2023-02-04T07:31:15;1.80;70.00
47576;DHT22;33304;52.456;13.328;2023-02-04T07:33:43;1.80;69.90
47576;DHT22;33304;52.456;13.328;2023-02-04T07:36:10;1.80;69.90
47576;DHT22;33304;52.456;13.328;2023-02-04T07:38:37;1.80;69.90
47576;DHT22;33304;52.456;13.328;2023-02-04T07:41:04;1.80;69.90
47576;DHT22;33304;52.456;13.328;2023-02-04T07:43:31;1.80;70.00
47576;DHT22;33304;52.456;13.328;2023-02-04T07:45:58;1.80;70.00
47576;DHT22;33304;52.456;13.328;2023-02-04T07:48:25;1.90;70.00
47576;DHT22;33304;52.456;13.328;2023-02-04T07:50:54;1.90;70.00
47576;DHT22;33304;52.456;13.328;2023-02-04T07:53:21;1.90;70.00
47576;DHT22;33304;52.456;13.328;2023-02-04T07:55:48;2.00;70.10
47576;DHT22;33304;52.456;13.328;2023-02-04T07:58:15;1.90;70.00
47576;DHT22;33304;52.456;13.328;2023-02-04T08:00:42;2.00;70.10
47576;DHT22;33304;52.456;13.328;2023-02-04T08:03:09;2.10;70.10
47576;DHT22;33304;52.456;13.328;2023-02-04T08:05:36;2.10;70.10
47576;DHT22;33304;52.456;13.328;2023-02-04T08:08:04;2.10;68.80
47576;DHT22;33304;52.456;13.328;2023-02-04T08:10:31;2.10;68.20
47576;DHT22;33304;52.456;13.328;2023-02-04T08:12:58;2.20;68.90
47576;DHT22;33304;52.456;13.328;2023-02-04T08:15:25;2.20;67.40
47576;DHT22;33304;52.456;13.328;2023-02-04T08:17:52;2.20;66.70
47576;DHT22;33304;52.456;13.328;2023-02-04T08:20:19;2.30;66.30
47576;DHT22;33304;52.456;13.328;2023-02-04T08:22:46;2.30;65.50
47576;DHT22;33304;52.456;13.328;2023-02-04T08:25:15;2.30;65.10
47576;DHT22;33304;52.456;13.328;2023-02-04T08:27:42;2.30;65.30
47576;DHT22;33304;52.456;13.328;2023-02-04T08:30:10;2.40;65.00
47576;DHT22;33304;52.456;13.328;2023-02-04T08:32:38;2.40;64.30
47576;DHT22;33304;52.456;13.328;2023-02-04T08:35:06;2.50;64.30
47576;DHT22;33304;52.456;13.328;2023-02-04T08:37:33;2.50;63.80
47576;DHT22;33304;52.456;13.328;2023-02-04T08:40:00;2.60;63.10
47576;DHT22;33304;52.456;13.328;2023-02-04T08:42:29;2.70;61.30
47576;DHT22;33304;52.456;13.328;2023-02-04T08:44:56;2.80;60.10
47576;DHT22;33304;52.456;13.328;2023-02-04T08:47:23;2.80;60.10
47576;DHT22;33304;52.456;13.328;2023-02-04T08:49:50;2.80;60.00
47576;DHT22;33304;52.456;13.328;2023-02-04T08:52:17;2.90;58.70
47576;DHT22;33304;52.456;13.328;2023-02-04T08:54:44;2.90;57.20
47576;DHT22;33304;52.456;13.328;2023-02-04T08:57:11;3.00;57.50
47576;DHT22;33304;52.456;13.328;2023-02-04T08:59:40;3.20;60.40
47576;DHT22;33304;52.456;13.328;2023-02-04T09:02:08;3.20;59.00
47576;DHT22;33304;52.456;13.328;2023-02-04T09:04:35;3.30;56.40
47576;DHT22;33304;52.456;13.328;2023-02-04T09:07:02;3.30;55.10
47576;DHT22;33304;52.456;13.328;2023-02-04T09:09:29;3.40;53.20
47576;DHT22;33304;52.456;13.328;2023-02-04T09:11:56;3.50;51.80
47576;DHT22;33304;52.456;13.328;2023-02-04T09:14:23;3.50;50.30
47576;DHT22;33304;52.456;13.328;2023-02-04T09:16:52;3.50;50.20
47576;DHT22;33304;52.456;13.328;2023-02-04T09:19:19;3.70;50.00
47576;DHT22;33304;52.456;13.328;2023-02-04T09:21:51;3.80;48.90
47576;DHT22;33304;52.456;13.328;2023-02-04T09:24:18;3.80;47.20
47576;DHT22;33304;52.456;13.328;2023-02-04T09:26:48;3.90;47.60
47576;DHT22;33304;52.456;13.328;2023-02-04T09:29:15;4.00;47.20
47576;DHT22;33304;52.456;13.328;2023-02-04T09:31:42;4.00;45.80
47576;DHT22;33304;52.456;13.328;2023-02-04T09:34:10;4.10;44.80
47576;DHT22;33304;52.456;13.328;2023-02-04T09:36:37;4.20;44.90
47576;DHT22;33304;52.456;13.328;2023-02-04T09:39:05;4.30;44.20
47576;DHT22;33304;52.456;13.328;2023-02-04T09:41:34;4.50;43.60
47576;DHT22;33304;52.456;13.328;2023-02-04T09:44:03;4.60;43.30
47576;DHT22;33304;52.456;13.328;2023-02-04T09:46:32;4.70;42.40
47576;DHT22;33304;52.456;13.328;2023-02-04T09:48:59;4.80;40.60
47576;DHT22;33304;52.456;13.328;2023-02-04T09:51:32;4.90;39.90
47576;DHT22;33304;52.456;13.328;2023-02-04T09:54:05;5.00;39.90
47576;DHT22;33304;52.456;13.328;2023-02-04T09:56:33;5.00;39.50
47576;DHT22;33304;52.456;13.328;2023-02-04T09:59:00;4.90;40.00
47576;DHT22;33304;52.456;13.328;2023-02-04T10:01:29;4.80;38.60
47576;DHT22;33304;52.456;13.328;2023-02-04T10:03:59;4.80;38.70
47576;DHT22;33304;52.456;13.328;2023-02-04T10:06:28;4.80;39.00
47576;DHT22;33304;52.456;13.328;2023-02-04T10:08:56;4.80;39.00
47576;DHT22;33304;52.456;13.328;2023-02-04T10:11:25;4.90;38.60
47576;DHT22;33304;52.456;13.328;2023-02-04T10:13:54;5.00;37.80
47576;DHT22;33304;52.456;13.328;2023-02-04T10:16:23;5.10;36.90
47576;DHT22;33304;52.456;13.328;2023-02-04T10:18:56;5.20;36.10
47576;DHT22;33304;52.456;13.328;2023-02-04T10:21:25;5.10;34.80
47576;DHT22;33304;52.456;13.328;2023-02-04T10:23:56;5.10;33.70
47576;DHT22;33304;52.456;13.328;2023-02-04T10:26:26;5.10;35.10
47576;DHT22;33304;52.456;13.328;2023-02-04T10:28:59;5.10;34.90
47576;DHT22;33304;52.456;13.328;2023-02-04T10:31:33;5.10;34.40
47576;DHT22;33304;52.456;13.328;2023-02-04T10:34:08;5.20;33.40
47576;DHT22;33304;52.456;13.328;2023-02-04T10:36:36;5.30;32.20
47576;DHT22;33304;52.456;13.328;2023-02-04T10:39:09;5.30;31.00
47576;DHT22;33304;52.456;13.328;2023-02-04T10:41:37;5.50;32.30
47576;DHT22;33304;52.456;13.328;2023-02-04T10:44:06;5.50;30.80
47576;DHT22;33304;52.456;13.328;2023-02-04T10:46:33;5.70;29.20
47576;DHT22;33304;52.456;13.328;2023-02-04T10:49:03;5.90;29.40
47576;DHT22;33304;52.456;13.328;2023-02-04T10:51:30;5.90;29.40
47576;DHT22;33304;52.456;13.328;2023-02-04T10:53:57;5.90;29.40
47576;DHT22;33304;52.456;13.328;2023-02-04T10:56:43;6.00;29.40
47576;DHT22;33304;52.456;13.328;2023-02-04T10:59:20;6.00;29.40
47576;DHT22;33304;52.456;13.328;2023-02-04T11:01:51;6.00;29.40
47576;DHT22;33304;52.456;13.328;2023-02-04T11:04:18;6.00;29.40
47576;DHT22;33304;52.456;13.328;2023-02-04T11:06:45;6.10;28.30
47576;DHT22;33304;52.456;13.328;2023-02-04T11:09:13;6.00;27.20
47576;DHT22;33304;52.456;13.328;2023-02-04T11:11:46;5.90;28.30
47576;DHT22;33304;52.456;13.328;2023-02-04T11:14:25;5.90;29.40
47576;DHT22;33304;52.456;13.328;2023-02-04T11:16:53;6.00;27.90
47576;DHT22;33304;52.456;13.328;2023-02-04T11:19:34;6.00;26.70
47576;DHT22;33304;52.456;13.328;2023-02-04T11:22:07;5.90;25.60
47576;DHT22;33304;52.456;13.328;2023-02-04T11:24:45;5.80;25.80
47576;DHT22;33304;52.456;13.328;2023-02-04T11:27:21;5.90;25.00
47576;DHT22;33304;52.456;13.328;2023-02-04T11:29:49;6.00;25.90
47576;DHT22;33304;52.456;13.328;2023-02-04T11:32:31;6.00;25.70
47576;DHT22;33304;52.456;13.328;2023-02-04T11:35:21;6.00;25.10
47576;DHT22;33304;52.456;13.328;2023-02-04T11:37:48;6.00;24.60
47576;DHT22;33304;52.456;13.328;2023-02-04T11:40:24;6.00;24.40
47576;DHT22;33304;52.456;13.328;2023-02-04T11:42:58;5.90;24.80
47576;DHT22;33304;52.456;13.328;2023-02-04T11:45:28;6.00;24.20
47576;DHT22;33304;52.456;13.328;2023-02-04T11:47:58;6.10;24.30
47576;DHT22;33304;52.456;13.328;2023-02-04T11:50:28;6.10;23.20
47576;DHT22;33304;52.456;13.328;2023-02-04T11:52:56;6.20;23.40
47576;DHT22;33304;52.456;13.328;2023-02-04T11:55:25;6.10;22.90
47576;DHT22;33304;52.456;13.328;2023-02-04T11:57:54;6.10;22.90
47576;DHT22;33304;52.456;13.328;2023-02-04T12:00:25;6.00;23.00
47576;DHT22;33304;52.456;13.328;2023-02-04T12:02:57;5.80;22.80
47576;DHT22;33304;52.456;13.328;2023-02-04T12:05:36;5.50;24.00
47576;DHT22;33304;52.456;13.328;2023-02-04T12:08:11;5.40;23.40
47576;DHT22;33304;52.456;13.328;2023-02-04T12:10:47;5.20;23.70
47576;DHT22;33304;52.456;13.328;2023-02-04T12:13:16;5.10;23.50
47576;DHT22;33304;52.456;13.328;2023-02-04T12:15:53;5.10;23.50
47576;DHT22;33304;52.456;13.328;2023-02-04T12:18:20;5.40;24.60
47576;DHT22;33304;52.456;13.328;2023-02-04T12:20:47;5.90;26.40
47576;DHT22;33304;52.456;13.328;2023-02-04T12:23:14;6.50;25.20
47576;DHT22;33304;52.456;13.328;2023-02-04T12:25:41;6.70;21.30
47576;DHT22;33304;52.456;13.328;2023-02-04T12:28:08;6.60;20.50
47576;DHT22;33304;52.456;13.328;2023-02-04T12:30:35;6.50;20.50
47576;DHT22;33304;52.456;13.328;2023-02-04T12:33:04;6.30;20.30
47576;DHT22;33304;52.456;13.328;2023-02-04T12:35:31;6.10;20.20
47576;DHT22;33304;52.456;13.328;2023-02-04T12:37:59;5.80;21.20
47576;DHT22;33304;52.456;13.328;2023-02-04T12:40:26;5.70;22.40
47576;DHT22;33304;52.456;13.328;2023-02-04T12:42:53;5.60;21.40
47576;DHT22;33304;52.456;13.328;2023-02-04T12:45:20;5.40;21.20
47576;DHT22;33304;52.456;13.328;2023-02-04T12:47:48;5.60;21.50
47576;DHT22;33304;52.456;13.328;2023-02-04T12:50:17;5.60;19.90
47576;DHT22;33304;52.456;13.328;2023-02-04T12:52:48;5.50;20.40
47576;DHT22;33304;52.456;13.328;2023-02-04T12:55:16;5.50;20.80
47576;DHT22;33304;52.456;13.328;2023-02-04T12:57:43;5.40;19.70
47576;DHT22;33304;52.456;13.328;2023-02-04T13:00:11;5.40;20.70
47576;DHT22;33304;52.456;13.328;2023-02-04T13:02:39;5.50;19.80
47576;DHT22;33304;52.456;13.328;2023-02-04T13:05:07;5.60;19.90
47576;DHT22;33304;52.456;13.328;2023-02-04T13:07:36;5.70;19.90
47576;DHT22;33304;52.456;13.328;2023-02-04T13:10:06;5.70;19.70
47576;DHT22;33304;52.456;13.328;2023-02-04T13:12:33;5.60;19.90
47576;DHT22;33304;52.456;13.328;2023-02-04T13:15:00;5.70;20.00
47576;DHT22;33304;52.456;13.328;2023-02-04T13:17:27;5.70;19.90
47576;DHT22;33304;52.456;13.328;2023-02-04T13:19:54;5.70;20.00
47576;DHT22;33304;52.456;13.328;2023-02-04T13:22:21;5.80;20.00
47576;DHT22;33304;52.456;13.328;2023-02-04T13:24:50;6.10;20.40
47576;DHT22;33304;52.456;13.328;2023-02-04T13:27:17;6.40;19.20
47576;DHT22;33304;52.456;13.328;2023-02-04T13:29:44;6.70;16.90
47576;DHT22;33304;52.456;13.328;2023-02-04T13:32:11;7.00;17.00
47576;DHT22;33304;52.456;13.328;2023-02-04T13:34:38;7.60;16.40
47576;DHT22;33304;52.456;13.328;2023-02-04T13:37:05;8.50;12.10
47576;DHT22;33304;52.456;13.328;2023-02-04T13:39:33;8.90;12.40
47576;DHT22;33304;52.456;13.328;2023-02-04T13:42:01;9.30;10.20
47576;DHT22;33304;52.456;13.328;2023-02-04T13:44:31;10.00;8.30
47576;DHT22;33304;52.456;13.328;2023-02-04T13:46:59;10.40;5.70
47576;DHT22;33304;52.456;13.328;2023-02-04T13:49:26;10.10;4.20
47576;DHT22;33304;52.456;13.328;2023-02-04T13:51:53;9.00;6.90
47576;DHT22;33304;52.456;13.328;2023-02-04T13:54:20;8.80;8.70
47576;DHT22;33304;52.456;13.328;2023-02-04T13:56:47;9.80;11.60
47576;DHT22;33304;52.456;13.328;2023-02-04T13:59:15;10.50;9.80
47576;DHT22;33304;52.456;13.328;2023-02-04T14:01:42;10.20;7.70
47576;DHT22;33304;52.456;13.328;2023-02-04T14:04:09;9.60;9.40
47576;DHT22;33304;52.456;13.328;2023-02-04T14:06:36;9.40;9.20
47576;DHT22;33304;52.456;13.328;2023-02-04T14:09:08;9.60;7.90
47576;DHT22;33304;52.456;13.328;2023-02-04T14:11:35;9.70;8.20
47576;DHT22;33304;52.456;13.328;2023-02-04T14:14:03;9.70;7.30
47576;DHT22;33304;52.456;13.328;2023-02-04T14:16:31;9.70;6.60
47576;DHT22;33304;52.456;13.328;2023-02-04T14:18:59;9.30;6.10
47576;DHT22;33304;52.456;13.328;2023-02-04T14:21:26;8.60;7.80
47576;DHT22;33304;52.456;13.328;2023-02-04T14:23:53;8.10;7.40
47576;DHT22;33304;52.456;13.328;2023-02-04T14:26:20;7.60;8.80
47576;DHT22;33304;52.456;13.328;2023-02-04T14:28:47;7.30;10.30
47576;DHT22;33304;52.456;13.328;2023-02-04T14:31:14;7.10;9.70
47576;DHT22;33304;52.456;13.328;2023-02-04T14:33:42;6.90;11.10
47576;DHT22;33304;52.456;13.328;2023-02-04T14:36:09;6.70;10.90
47576;DHT22;33304;52.456;13.328;2023-02-04T14:38:38;6.50;10.80
47576;DHT22;33304;52.456;13.328;2023-02-04T14:41:05;6.30;11.20
47576;DHT22;33304;52.456;13.328;2023-02-04T14:43:32;6.20;12.10
47576;DHT22;33304;52.456;13.328;2023-02-04T14:46:03;6.10;12.80
47576;DHT22;33304;52.456;13.328;2023-02-04T14:48:30;6.00;12.90
47576;DHT22;33304;52.456;13.328;2023-02-04T14:50:58;5.90;12.80
47576;DHT22;33304;52.456;13.328;2023-02-04T14:53:26;5.80;14.30
47576;DHT22;33304;52.456;13.328;2023-02-04T14:55:53;5.70;14.80
47576;DHT22;33304;52.456;13.328;2023-02-04T14:58:20;5.70;14.70
47576;DHT22;33304;52.456;13.328;2023-02-04T15:00:47;5.50;15.00
47576;DHT22;33304;52.456;13.328;2023-02-04T15:03:14;5.70;14.50
47576;DHT22;33304;52.456;13.328;2023-02-04T15:05:41;5.60;15.10
47576;DHT22;33304;52.456;13.328;2023-02-04T15:08:10;5.60;15.10
47576;DHT22;33304;52.456;13.328;2023-02-04T15:10:37;5.60;15.40
47576;DHT22;33304;52.456;13.328;2023-02-04T15:13:04;5.50;14.40
47576;DHT22;33304;52.456;13.328;2023-02-04T15:15:31;5.40;15.00
47576;DHT22;33304;52.456;13.328;2023-02-04T15:17:58;5.30;14.50
47576;DHT22;33304;52.456;13.328;2023-02-04T15:20:25;5.30;15.30
47576;DHT22;33304;52.456;13.328;2023-02-04T15:22:52;5.10;15.30
47576;DHT22;33304;52.456;13.328;2023-02-04T15:25:22;5.10;14.80
47576;DHT22;33304;52.456;13.328;2023-02-04T15:27:50;5.00;14.70
47576;DHT22;33304;52.456;13.328;2023-02-04T15:30:17;4.90;14.40
47576;DHT22;33304;52.456;13.328;2023-02-04T15:32:44;4.80;14.20
47576;DHT22;33304;52.456;13.328;2023-02-04T15:35:11;4.70;14.10
47576;DHT22;33304;52.456;13.328;2023-02-04T15:37:38;4.60;14.40
47576;DHT22;33304;52.456;13.328;2023-02-04T15:40:06;4.50;14.60